sensor_id;sensor_type;location;lat;lon;timestamp;P1;durP1;ratioP1;P2;durP2;ratioP2
42614;SDS011;28754;47.700;7.924;2022-08-14T00:01:23;2.28;;;1.25;;
42614;SDS011;28754;47.700;7.924;2022-08-14T00:04:10;2.03;;;1.25;;
42614;SDS011;28754;47.700;7.924;2022-08-14T00:06:57;2.08;;;1.67;;
42614;SDS011;28754;47.700;7.924;2022-08-14T00:09:44;1.20;;;1.10;;
42614;SDS011;28754;47.700;7.924;2022-08-14T00:12:31;2.90;;;1.05;;
42614;SDS011;28754;47.700;7.924;2022-08-14T00:15:23;2.30;;;1.38;;
42614;SDS011;28754;47.700;7.924;2022-08-14T00:18:16;2.72;;;1.90;;
42614;SDS011;28754;47.700;7.924;2022-08-14T00:21:08;1.60;;;1.20;;
42614;SDS011;28754;47.700;7.924;2022-08-14T00:23:55;1.67;;;1.25;;
42614;SDS011;28754;47.700;7.924;2022-08-14T00:26:41;1.77;;;1.25;;
42614;SDS011;28754;47.700;7.924;2022-08-14T00:29:29;3.55;;;1.55;;
42614;SDS011;28754;47.700;7.924;2022-08-14T00:32:17;1.65;;;1.33;;
42614;SDS011;28754;47.700;7.924;2022-08-14T00:35:04;3.17;;;1.27;;
42614;SDS011;28754;47.700;7.924;2022-08-14T00:37:54;4.05;;;1.88;;
42614;SDS011;28754;47.700;7.924;2022-08-14T00:40:40;6.10;;;1.65;;
42614;SDS011;28754;47.700;7.924;2022-08-14T00:43:27;1.33;;;1.23;;
42614;SDS011;28754;47.700;7.924;2022-08-14T00:46:14;2.75;;;1.30;;
42614;SDS011;28754;47.700;7.924;2022-08-14T00:49:01;1.63;;;1.33;;
42614;SDS011;28754;47.700;7.924;2022-08-14T00:51:47;2.13;;;1.20;;
42614;SDS011;28754;47.700;7.924;2022-08-14T00:54:34;2.63;;;1.48;;
42614;SDS011;28754;47.700;7.924;2022-08-14T00:57:27;1.88;;;1.65;;
42614;SDS011;28754;47.700;7.924;2022-08-14T01:00:17;1.77;;;1.10;;
42614;SDS011;28754;47.700;7.924;2022-08-14T01:03:04;2.17;;;1.10;;
42614;SDS011;28754;47.700;7.924;2022-08-14T01:05:53;3.60;;;1.95;;
42614;SDS011;28754;47.700;7.924;2022-08-14T01:08:41;2.08;;;1.50;;
42614;SDS011;28754;47.700;7.924;2022-08-14T01:11:29;1.52;;;1.42;;
42614;SDS011;28754;47.700;7.924;2022-08-14T01:14:17;1.88;;;1.00;;
42614;SDS011;28754;47.700;7.924;2022-08-14T01:17:05;3.25;;;1.40;;
42614;SDS011;28754;47.700;7.924;2022-08-14T01:19:52;2.33;;;1.50;;
42614;SDS011;28754;47.700;7.924;2022-08-14T01:22:58;2.60;;;1.50;;
42614;SDS011;28754;47.700;7.924;2022-08-14T01:25:46;2.20;;;1.70;;
42614;SDS011;28754;47.700;7.924;2022-08-14T01:28:35;5.43;;;2.72;;
42614;SDS011;28754;47.700;7.924;2022-08-14T01:31:23;1.58;;;1.40;;
42614;SDS011;28754;47.700;7.924;2022-08-14T01:34:13;1.25;;;1.15;;
42614;SDS011;28754;47.700;7.924;2022-08-14T01:37:00;1.55;;;1.35;;
42614;SDS011;28754;47.700;7.924;2022-08-14T01:39:50;2.55;;;1.30;;
42614;SDS011;28754;47.700;7.924;2022-08-14T01:42:37;2.55;;;1.55;;
42614;SDS011;28754;47.700;7.924;2022-08-14T01:45:27;1.67;;;1.20;;
42614;SDS011;28754;47.700;7.924;2022-08-14T01:48:14;3.13;;;1.42;;
42614;SDS011;28754;47.700;7.924;2022-08-14T01:51:02;1.80;;;1.52;;
42614;SDS011;28754;47.700;7.924;2022-08-14T01:53:52;1.90;;;1.20;;
42614;SDS011;28754;47.700;7.924;2022-08-14T01:56:43;2.13;;;1.38;;
42614;SDS011;28754;47.700;7.924;2022-08-14T01:59:32;4.15;;;2.22;;
42614;SDS011;28754;47.700;7.924;2022-08-14T02:02:19;4.13;;;1.10;;
42614;SDS011;28754;47.700;7.924;2022-08-14T02:05:06;4.95;;;1.17;;
42614;SDS011;28754;47.700;7.924;2022-08-14T02:07:57;2.33;;;1.50;;
42614;SDS011;28754;47.700;7.924;2022-08-14T02:10:43;2.92;;;1.80;;
42614;SDS011;28754;47.700;7.924;2022-08-14T02:13:30;3.45;;;1.90;;
42614;SDS011;28754;47.700;7.924;2022-08-14T02:16:17;2.53;;;1.33;;
42614;SDS011;28754;47.700;7.924;2022-08-14T02:19:14;1.58;;;1.48;;
42614;SDS011;28754;47.700;7.924;2022-08-14T02:22:03;4.78;;;1.60;;
42614;SDS011;28754;47.700;7.924;2022-08-14T02:24:51;3.33;;;1.30;;
42614;SDS011;28754;47.700;7.924;2022-08-14T02:27:39;2.30;;;1.70;;
42614;SDS011;28754;47.700;7.924;2022-08-14T02:30:27;4.80;;;1.60;;
42614;SDS011;28754;47.700;7.924;2022-08-14T02:33:14;1.92;;;1.55;;
42614;SDS011;28754;47.700;7.924;2022-08-14T02:36:01;2.85;;;2.00;;
42614;SDS011;28754;47.700;7.924;2022-08-14T02:38:49;2.10;;;1.70;;
42614;SDS011;28754;47.700;7.924;2022-08-14T02:41:36;9.18;;;1.85;;
42614;SDS011;28754;47.700;7.924;2022-08-14T02:44:24;4.22;;;1.40;;
42614;SDS011;28754;47.700;7.924;2022-08-14T02:47:11;1.85;;;1.52;;
42614;SDS011;28754;47.700;7.924;2022-08-14T02:49:58;1.67;;;1.25;;
42614;SDS011;28754;47.700;7.924;2022-08-14T02:52:44;3.47;;;1.30;;
42614;SDS011;28754;47.700;7.924;2022-08-14T02:55:31;3.38;;;1.30;;
42614;SDS011;28754;47.700;7.924;2022-08-14T02:58:18;1.25;;;1.05;;
42614;SDS011;28754;47.700;7.924;2022-08-14T03:01:09;1.40;;;1.30;;
42614;SDS011;28754;47.700;7.924;2022-08-14T03:03:56;1.85;;;1.63;;
42614;SDS011;28754;47.700;7.924;2022-08-14T03:06:42;2.15;;;1.67;;
42614;SDS011;28754;47.700;7.924;2022-08-14T03:09:29;1.67;;;1.40;;
42614;SDS011;28754;47.700;7.924;2022-08-14T03:12:16;1.35;;;1.20;;
42614;SDS011;28754;47.700;7.924;2022-08-14T03:15:03;2.60;;;1.92;;
42614;SDS011;28754;47.700;7.924;2022-08-14T03:17:55;2.17;;;1.15;;
42614;SDS011;28754;47.700;7.924;2022-08-14T03:20:42;1.40;;;1.25;;
42614;SDS011;28754;47.700;7.924;2022-08-14T03:23:28;2.78;;;2.10;;
42614;SDS011;28754;47.700;7.924;2022-08-14T03:26:19;2.75;;;1.55;;
42614;SDS011;28754;47.700;7.924;2022-08-14T03:29:11;1.77;;;1.42;;
42614;SDS011;28754;47.700;7.924;2022-08-14T03:32:01;3.25;;;1.30;;
42614;SDS011;28754;47.700;7.924;2022-08-14T03:34:48;8.15;;;1.55;;
42614;SDS011;28754;47.700;7.924;2022-08-14T03:37:35;2.60;;;1.60;;
42614;SDS011;28754;47.700;7.924;2022-08-14T03:40:22;5.55;;;1.73;;
42614;SDS011;28754;47.700;7.924;2022-08-14T03:43:10;1.73;;;1.20;;
42614;SDS011;28754;47.700;7.924;2022-08-14T03:45:56;2.20;;;1.77;;
42614;SDS011;28754;47.700;7.924;2022-08-14T03:48:43;4.55;;;1.13;;
42614;SDS011;28754;47.700;7.924;2022-08-14T03:51:31;1.50;;;1.20;;
42614;SDS011;28754;47.700;7.924;2022-08-14T03:54:19;4.18;;;1.20;;
42614;SDS011;28754;47.700;7.924;2022-08-14T03:57:06;1.65;;;1.35;;
42614;SDS011;28754;47.700;7.924;2022-08-14T03:59:53;1.40;;;1.10;;
42614;SDS011;28754;47.700;7.924;2022-08-14T04:02:40;5.40;;;1.20;;
42614;SDS011;28754;47.700;7.924;2022-08-14T04:05:27;2.05;;;1.20;;
42614;SDS011;28754;47.700;7.924;2022-08-14T04:08:14;1.52;;;1.35;;
42614;SDS011;28754;47.700;7.924;2022-08-14T04:11:01;2.83;;;1.40;;
42614;SDS011;28754;47.700;7.924;2022-08-14T04:13:48;2.13;;;1.40;;
42614;SDS011;28754;47.700;7.924;2022-08-14T04:16:35;2.28;;;1.25;;
42614;SDS011;28754;47.700;7.924;2022-08-14T04:19:21;2.22;;;1.30;;
42614;SDS011;28754;47.700;7.924;2022-08-14T04:22:08;2.15;;;1.33;;
42614;SDS011;28754;47.700;7.924;2022-08-14T04:24:55;3.60;;;1.42;;
42614;SDS011;28754;47.700;7.924;2022-08-14T04:27:44;1.90;;;1.52;;
42614;SDS011;28754;47.700;7.924;2022-08-14T04:30:32;3.63;;;1.00;;
42614;SDS011;28754;47.700;7.924;2022-08-14T04:33:23;2.35;;;1.63;;
42614;SDS011;28754;47.700;7.924;2022-08-14T04:36:10;2.55;;;1.85;;
42614;SDS011;28754;47.700;7.924;2022-08-14T04:38:57;1.65;;;1.20;;
42614;SDS011;28754;47.700;7.924;2022-08-14T04:42:02;1.77;;;1.33;;
42614;SDS011;28754;47.700;7.924;2022-08-14T04:45:07;1.80;;;1.25;;
42614;SDS011;28754;47.700;7.924;2022-08-14T04:47:54;1.98;;;1.30;;
42614;SDS011;28754;47.700;7.924;2022-08-14T04:51:00;2.13;;;1.15;;
42614;SDS011;28754;47.700;7.924;2022-08-14T04:53:50;1.20;;;0.90;;
42614;SDS011;28754;47.700;7.924;2022-08-14T04:56:37;2.47;;;1.63;;
42614;SDS011;28754;47.700;7.924;2022-08-14T04:59:24;1.70;;;1.25;;
42614;SDS011;28754;47.700;7.924;2022-08-14T05:02:10;2.72;;;1.10;;
42614;SDS011;28754;47.700;7.924;2022-08-14T05:04:58;4.28;;;1.08;;
42614;SDS011;28754;47.700;7.924;2022-08-14T05:07:45;2.28;;;1.33;;
42614;SDS011;28754;47.700;7.924;2022-08-14T05:10:32;3.92;;;1.20;;
42614;SDS011;28754;47.700;7.924;2022-08-14T05:13:19;1.90;;;1.00;;
42614;SDS011;28754;47.700;7.924;2022-08-14T05:16:08;3.05;;;1.08;;
42614;SDS011;28754;47.700;7.924;2022-08-14T05:18:58;2.60;;;1.52;;
42614;SDS011;28754;47.700;7.924;2022-08-14T05:21:44;1.95;;;0.82;;
42614;SDS011;28754;47.700;7.924;2022-08-14T05:24:31;1.63;;;1.20;;
42614;SDS011;28754;47.700;7.924;2022-08-14T05:27:18;1.20;;;0.98;;
42614;SDS011;28754;47.700;7.924;2022-08-14T05:30:05;1.50;;;1.25;;
42614;SDS011;28754;47.700;7.924;2022-08-14T05:32:53;3.70;;;1.25;;
42614;SDS011;28754;47.700;7.924;2022-08-14T05:35:40;1.52;;;1.25;;
42614;SDS011;28754;47.700;7.924;2022-08-14T05:39:03;4.30;;;1.08;;
42614;SDS011;28754;47.700;7.924;2022-08-14T05:41:42;8.38;;;2.08;;
42614;SDS011;28754;47.700;7.924;2022-08-14T05:44:29;4.10;;;1.50;;
42614;SDS011;28754;47.700;7.924;2022-08-14T05:47:15;3.80;;;0.73;;
42614;SDS011;28754;47.700;7.924;2022-08-14T05:50:02;1.33;;;0.90;;
42614;SDS011;28754;47.700;7.924;2022-08-14T05:52:49;3.08;;;1.15;;
42614;SDS011;28754;47.700;7.924;2022-08-14T05:55:36;1.15;;;0.90;;
42614;SDS011;28754;47.700;7.924;2022-08-14T05:58:22;2.90;;;1.13;;
42614;SDS011;28754;47.700;7.924;2022-08-14T06:01:10;2.17;;;0.95;;
42614;SDS011;28754;47.700;7.924;2022-08-14T06:03:57;1.15;;;0.90;;
42614;SDS011;28754;47.700;7.924;2022-08-14T06:06:43;1.33;;;1.05;;
42614;SDS011;28754;47.700;7.924;2022-08-14T06:09:31;2.25;;;1.45;;
42614;SDS011;28754;47.700;7.924;2022-08-14T06:12:18;5.18;;;1.52;;
42614;SDS011;28754;47.700;7.924;2022-08-14T06:15:05;0.73;;;0.68;;
42614;SDS011;28754;47.700;7.924;2022-08-14T06:17:54;1.80;;;1.00;;
42614;SDS011;28754;47.700;7.924;2022-08-14T06:20:41;1.13;;;0.98;;
42614;SDS011;28754;47.700;7.924;2022-08-14T06:23:28;1.40;;;0.85;;
42614;SDS011;28754;47.700;7.924;2022-08-14T06:26:15;2.92;;;1.13;;
42614;SDS011;28754;47.700;7.924;2022-08-14T06:29:02;2.42;;;0.85;;
42614;SDS011;28754;47.700;7.924;2022-08-14T06:31:48;1.98;;;1.00;;
42614;SDS011;28754;47.700;7.924;2022-08-14T06:34:36;3.83;;;1.38;;
42614;SDS011;28754;47.700;7.924;2022-08-14T06:37:24;1.42;;;1.10;;
42614;SDS011;28754;47.700;7.924;2022-08-14T06:40:12;1.77;;;1.38;;
42614;SDS011;28754;47.700;7.924;2022-08-14T06:43:03;2.28;;;0.90;;
42614;SDS011;28754;47.700;7.924;2022-08-14T06:45:56;4.82;;;1.60;;
42614;SDS011;28754;47.700;7.924;2022-08-14T06:48:43;1.00;;;0.75;;
42614;SDS011;28754;47.700;7.924;2022-08-14T06:51:30;4.68;;;1.25;;
42614;SDS011;28754;47.700;7.924;2022-08-14T06:54:17;1.45;;;0.95;;
42614;SDS011;28754;47.700;7.924;2022-08-14T06:57:03;2.08;;;0.90;;
42614;SDS011;28754;47.700;7.924;2022-08-14T06:59:50;1.17;;;0.88;;
42614;SDS011;28754;47.700;7.924;2022-08-14T07:02:37;4.68;;;0.90;;
42614;SDS011;28754;47.700;7.924;2022-08-14T07:05:43;2.08;;;1.17;;
42614;SDS011;28754;47.700;7.924;2022-08-14T07:08:33;1.67;;;1.20;;
42614;SDS011;28754;47.700;7.924;2022-08-14T07:11:20;2.55;;;1.02;;
42614;SDS011;28754;47.700;7.924;2022-08-14T07:14:07;1.17;;;0.90;;
42614;SDS011;28754;47.700;7.924;2022-08-14T07:16:53;1.05;;;0.90;;
42614;SDS011;28754;47.700;7.924;2022-08-14T07:19:40;1.55;;;1.15;;
42614;SDS011;28754;47.700;7.924;2022-08-14T07:22:27;1.08;;;0.80;;
42614;SDS011;28754;47.700;7.924;2022-08-14T07:25:16;1.35;;;0.90;;
42614;SDS011;28754;47.700;7.924;2022-08-14T07:28:08;1.70;;;1.45;;
42614;SDS011;28754;47.700;7.924;2022-08-14T07:31:03;1.90;;;1.30;;
42614;SDS011;28754;47.700;7.924;2022-08-14T07:33:54;1.30;;;1.00;;
42614;SDS011;28754;47.700;7.924;2022-08-14T07:36:40;4.00;;;1.35;;
42614;SDS011;28754;47.700;7.924;2022-08-14T07:39:27;1.20;;;0.90;;
42614;SDS011;28754;47.700;7.924;2022-08-14T07:42:14;1.48;;;1.15;;
42614;SDS011;28754;47.700;7.924;2022-08-14T07:45:00;1.00;;;0.88;;
42614;SDS011;28754;47.700;7.924;2022-08-14T07:47:47;2.70;;;0.90;;
42614;SDS011;28754;47.700;7.924;2022-08-14T07:50:34;1.38;;;1.02;;
42614;SDS011;28754;47.700;7.924;2022-08-14T07:53:21;0.98;;;0.80;;
42614;SDS011;28754;47.700;7.924;2022-08-14T07:56:08;1.90;;;1.30;;
42614;SDS011;28754;47.700;7.924;2022-08-14T07:58:55;1.70;;;1.17;;
42614;SDS011;28754;47.700;7.924;2022-08-14T08:01:43;1.10;;;0.90;;
42614;SDS011;28754;47.700;7.924;2022-08-14T08:04:30;1.15;;;0.90;;
42614;SDS011;28754;47.700;7.924;2022-08-14T08:07:17;1.17;;;0.85;;
42614;SDS011;28754;47.700;7.924;2022-08-14T08:10:05;2.85;;;1.00;;
42614;SDS011;28754;47.700;7.924;2022-08-14T08:13:19;3.35;;;1.55;;
42614;SDS011;28754;47.700;7.924;2022-08-14T08:16:06;1.35;;;1.10;;
42614;SDS011;28754;47.700;7.924;2022-08-14T08:18:53;3.60;;;1.30;;
42614;SDS011;28754;47.700;7.924;2022-08-14T08:21:40;1.45;;;1.10;;
42614;SDS011;28754;47.700;7.924;2022-08-14T08:24:28;1.77;;;0.88;;
42614;SDS011;28754;47.700;7.924;2022-08-14T08:27:15;3.33;;;1.02;;
42614;SDS011;28754;47.700;7.924;2022-08-14T08:30:05;1.40;;;1.13;;
42614;SDS011;28754;47.700;7.924;2022-08-14T08:32:55;2.15;;;1.27;;
42614;SDS011;28754;47.700;7.924;2022-08-14T08:35:46;5.60;;;2.55;;
42614;SDS011;28754;47.700;7.924;2022-08-14T08:38:34;1.83;;;1.38;;
42614;SDS011;28754;47.700;7.924;2022-08-14T08:41:21;1.80;;;1.15;;
42614;SDS011;28754;47.700;7.924;2022-08-14T08:44:08;0.95;;;0.77;;
42614;SDS011;28754;47.700;7.924;2022-08-14T08:46:58;2.22;;;1.35;;
42614;SDS011;28754;47.700;7.924;2022-08-14T08:49:50;4.90;;;1.13;;
42614;SDS011;28754;47.700;7.924;2022-08-14T08:52:45;1.17;;;0.88;;
42614;SDS011;28754;47.700;7.924;2022-08-14T08:55:43;2.80;;;1.20;;
42614;SDS011;28754;47.700;7.924;2022-08-14T08:58:30;1.23;;;1.10;;
42614;SDS011;28754;47.700;7.924;2022-08-14T09:01:17;1.48;;;1.27;;
42614;SDS011;28754;47.700;7.924;2022-08-14T09:04:18;1.55;;;1.25;;
42614;SDS011;28754;47.700;7.924;2022-08-14T09:07:06;1.98;;;1.55;;
42614;SDS011;28754;47.700;7.924;2022-08-14T09:09:53;3.88;;;1.35;;
42614;SDS011;28754;47.700;7.924;2022-08-14T09:12:41;1.52;;;1.40;;
42614;SDS011;28754;47.700;7.924;2022-08-14T09:15:28;2.85;;;1.83;;
42614;SDS011;28754;47.700;7.924;2022-08-14T09:18:16;1.77;;;1.52;;
42614;SDS011;28754;47.700;7.924;2022-08-14T09:21:04;1.83;;;1.48;;
42614;SDS011;28754;47.700;7.924;2022-08-14T09:23:52;2.35;;;1.77;;
42614;SDS011;28754;47.700;7.924;2022-08-14T09:26:40;3.72;;;1.73;;
42614;SDS011;28754;47.700;7.924;2022-08-14T09:29:29;2.65;;;1.65;;
42614;SDS011;28754;47.700;7.924;2022-08-14T09:32:26;1.67;;;1.40;;
42614;SDS011;28754;47.700;7.924;2022-08-14T09:46:11;2.28;;;1.23;;
42614;SDS011;28754;47.700;7.924;2022-08-14T09:48:59;2.97;;;1.80;;
42614;SDS011;28754;47.700;7.924;2022-08-14T09:51:48;1.60;;;1.35;;
42614;SDS011;28754;47.700;7.924;2022-08-14T09:54:39;1.30;;;0.93;;
42614;SDS011;28754;47.700;7.924;2022-08-14T10:00:16;2.13;;;1.67;;
42614;SDS011;28754;47.700;7.924;2022-08-14T10:03:26;2.63;;;1.70;;
42614;SDS011;28754;47.700;7.924;2022-08-14T10:06:19;2.40;;;1.63;;
42614;SDS011;28754;47.700;7.924;2022-08-14T10:09:11;1.75;;;1.52;;
42614;SDS011;28754;47.700;7.924;2022-08-14T10:11:59;4.20;;;2.20;;
42614;SDS011;28754;47.700;7.924;2022-08-14T10:14:45;2.03;;;1.70;;
42614;SDS011;28754;47.700;7.924;2022-08-14T10:17:32;6.95;;;1.50;;
42614;SDS011;28754;47.700;7.924;2022-08-14T10:20:30;3.25;;;1.88;;
42614;SDS011;28754;47.700;7.924;2022-08-14T10:23:42;2.85;;;2.22;;
42614;SDS011;28754;47.700;7.924;2022-08-14T10:26:35;2.20;;;1.63;;
42614;SDS011;28754;47.700;7.924;2022-08-14T10:29:32;3.53;;;2.22;;
42614;SDS011;28754;47.700;7.924;2022-08-14T10:32:26;3.43;;;1.73;;
42614;SDS011;28754;47.700;7.924;2022-08-14T10:35:14;2.45;;;2.05;;
42614;SDS011;28754;47.700;7.924;2022-08-14T10:38:01;4.78;;;2.08;;
42614;SDS011;28754;47.700;7.924;2022-08-14T10:40:48;3.28;;;2.38;;
42614;SDS011;28754;47.700;7.924;2022-08-14T10:43:35;2.47;;;2.03;;
42614;SDS011;28754;47.700;7.924;2022-08-14T10:46:22;2.33;;;1.80;;
42614;SDS011;28754;47.700;7.924;2022-08-14T10:49:16;2.60;;;2.40;;
42614;SDS011;28754;47.700;7.924;2022-08-14T10:52:09;5.50;;;2.70;;
42614;SDS011;28754;47.700;7.924;2022-08-14T10:55:06;5.03;;;2.05;;
42614;SDS011;28754;47.700;7.924;2022-08-14T10:57:58;10.40;;;5.00;;
42614;SDS011;28754;47.700;7.924;2022-08-14T11:00:52;4.80;;;3.72;;
42614;SDS011;28754;47.700;7.924;2022-08-14T11:03:42;5.53;;;3.17;;
42614;SDS011;28754;47.700;7.924;2022-08-14T11:06:30;7.30;;;2.95;;
42614;SDS011;28754;47.700;7.924;2022-08-14T11:09:18;4.78;;;2.85;;
42614;SDS011;28754;47.700;7.924;2022-08-14T11:12:05;7.28;;;3.13;;
42614;SDS011;28754;47.700;7.924;2022-08-14T11:14:55;5.63;;;2.95;;
42614;SDS011;28754;47.700;7.924;2022-08-14T11:17:47;3.53;;;3.10;;
42614;SDS011;28754;47.700;7.924;2022-08-14T11:20:36;5.10;;;3.45;;
42614;SDS011;28754;47.700;7.924;2022-08-14T11:23:35;5.13;;;3.97;;
42614;SDS011;28754;47.700;7.924;2022-08-14T11:26:25;8.07;;;4.38;;
42614;SDS011;28754;47.700;7.924;2022-08-14T11:29:14;5.90;;;4.43;;
42614;SDS011;28754;47.700;7.924;2022-08-14T11:32:02;6.28;;;3.90;;
42614;SDS011;28754;47.700;7.924;2022-08-14T11:34:51;7.38;;;4.03;;
42614;SDS011;28754;47.700;7.924;2022-08-14T11:37:47;5.78;;;4.03;;
42614;SDS011;28754;47.700;7.924;2022-08-14T11:40:46;6.72;;;4.30;;
42614;SDS011;28754;47.700;7.924;2022-08-14T11:43:40;4.28;;;3.65;;
42614;SDS011;28754;47.700;7.924;2022-08-14T11:46:32;4.65;;;3.65;;
42614;SDS011;28754;47.700;7.924;2022-08-14T11:49:26;5.88;;;5.28;;
42614;SDS011;28754;47.700;7.924;2022-08-14T11:52:16;5.85;;;4.70;;
42614;SDS011;28754;47.700;7.924;2022-08-14T11:55:06;4.90;;;4.18;;
42614;SDS011;28754;47.700;7.924;2022-08-14T11:58:02;6.85;;;4.68;;
42614;SDS011;28754;47.700;7.924;2022-08-14T12:00:55;5.13;;;4.03;;
42614;SDS011;28754;47.700;7.924;2022-08-14T12:03:47;4.72;;;4.22;;
42614;SDS011;28754;47.700;7.924;2022-08-14T12:06:43;6.43;;;4.30;;
42614;SDS011;28754;47.700;7.924;2022-08-14T12:09:39;10.25;;;5.38;;
42614;SDS011;28754;47.700;7.924;2022-08-14T12:12:26;5.75;;;4.25;;
42614;SDS011;28754;47.700;7.924;2022-08-14T12:15:26;5.82;;;4.03;;
42614;SDS011;28754;47.700;7.924;2022-08-14T12:18:27;7.28;;;4.30;;
42614;SDS011;28754;47.700;7.924;2022-08-14T12:21:26;5.50;;;4.47;;
42614;SDS011;28754;47.700;7.924;2022-08-14T12:24:13;4.82;;;3.83;;
42614;SDS011;28754;47.700;7.924;2022-08-14T12:26:59;9.20;;;4.32;;
42614;SDS011;28754;47.700;7.924;2022-08-14T12:29:50;8.10;;;4.18;;
42614;SDS011;28754;47.700;7.924;2022-08-14T12:32:43;9.50;;;4.67;;
42614;SDS011;28754;47.700;7.924;2022-08-14T12:38:32;8.70;;;5.00;;
42614;SDS011;28754;47.700;7.924;2022-08-14T12:41:27;6.30;;;4.00;;
42614;SDS011;28754;47.700;7.924;2022-08-14T12:44:16;4.72;;;4.18;;
42614;SDS011;28754;47.700;7.924;2022-08-14T12:47:14;4.65;;;4.18;;
42614;SDS011;28754;47.700;7.924;2022-08-14T12:50:06;4.68;;;4.18;;
42614;SDS011;28754;47.700;7.924;2022-08-14T12:52:54;5.13;;;4.47;;
42614;SDS011;28754;47.700;7.924;2022-08-14T12:55:42;5.68;;;4.40;;
42614;SDS011;28754;47.700;7.924;2022-08-14T12:58:30;7.13;;;4.57;;
42614;SDS011;28754;47.700;7.924;2022-08-14T13:01:21;6.78;;;5.05;;
42614;SDS011;28754;47.700;7.924;2022-08-14T13:04:14;11.90;;;4.95;;
42614;SDS011;28754;47.700;7.924;2022-08-14T13:07:02;8.07;;;4.00;;
42614;SDS011;28754;47.700;7.924;2022-08-14T13:09:53;4.38;;;3.60;;
42614;SDS011;28754;47.700;7.924;2022-08-14T13:12:42;6.40;;;4.07;;
42614;SDS011;28754;47.700;7.924;2022-08-14T13:15:29;5.03;;;2.92;;
42614;SDS011;28754;47.700;7.924;2022-08-14T13:18:16;6.72;;;3.67;;
42614;SDS011;28754;47.700;7.924;2022-08-14T13:21:03;4.00;;;2.67;;
42614;SDS011;28754;47.700;7.924;2022-08-14T13:23:51;7.65;;;2.83;;
42614;SDS011;28754;47.700;7.924;2022-08-14T13:26:43;10.80;;;3.33;;
42614;SDS011;28754;47.700;7.924;2022-08-14T13:29:41;4.75;;;2.88;;
42614;SDS011;28754;47.700;7.924;2022-08-14T13:32:29;5.03;;;2.35;;
42614;SDS011;28754;47.700;7.924;2022-08-14T13:35:19;5.05;;;1.90;;
42614;SDS011;28754;47.700;7.924;2022-08-14T13:38:07;5.90;;;2.10;;
42614;SDS011;28754;47.700;7.924;2022-08-14T13:40:55;5.45;;;1.90;;
42614;SDS011;28754;47.700;7.924;2022-08-14T13:43:42;11.00;;;2.65;;
42614;SDS011;28754;47.700;7.924;2022-08-14T13:46:30;7.15;;;2.30;;
42614;SDS011;28754;47.700;7.924;2022-08-14T13:49:17;4.53;;;2.60;;
42614;SDS011;28754;47.700;7.924;2022-08-14T13:52:04;5.00;;;2.30;;
42614;SDS011;28754;47.700;7.924;2022-08-14T13:54:56;3.58;;;2.05;;
42614;SDS011;28754;47.700;7.924;2022-08-14T13:57:47;5.22;;;3.38;;
42614;SDS011;28754;47.700;7.924;2022-08-14T14:00:35;7.78;;;2.40;;
42614;SDS011;28754;47.700;7.924;2022-08-14T14:03:24;6.35;;;1.75;;
42614;SDS011;28754;47.700;7.924;2022-08-14T14:06:14;3.95;;;2.17;;
42614;SDS011;28754;47.700;7.924;2022-08-14T14:09:03;6.22;;;2.03;;
42614;SDS011;28754;47.700;7.924;2022-08-14T14:11:57;4.63;;;1.80;;
42614;SDS011;28754;47.700;7.924;2022-08-14T14:14:45;5.40;;;2.28;;
42614;SDS011;28754;47.700;7.924;2022-08-14T14:17:32;3.00;;;1.38;;
42614;SDS011;28754;47.700;7.924;2022-08-14T14:20:21;2.95;;;1.73;;
42614;SDS011;28754;47.700;7.924;2022-08-14T14:23:11;2.05;;;1.63;;
42614;SDS011;28754;47.700;7.924;2022-08-14T14:25:59;5.30;;;1.92;;
42614;SDS011;28754;47.700;7.924;2022-08-14T14:28:48;4.05;;;1.98;;
42614;SDS011;28754;47.700;7.924;2022-08-14T14:31:40;5.90;;;2.28;;
42614;SDS011;28754;47.700;7.924;2022-08-14T14:34:29;2.05;;;1.58;;
42614;SDS011;28754;47.700;7.924;2022-08-14T14:37:18;2.00;;;1.48;;
42614;SDS011;28754;47.700;7.924;2022-08-14T14:40:07;4.32;;;1.75;;
42614;SDS011;28754;47.700;7.924;2022-08-14T14:42:58;2.95;;;1.75;;
42614;SDS011;28754;47.700;7.924;2022-08-14T14:45:48;6.80;;;2.47;;
42614;SDS011;28754;47.700;7.924;2022-08-14T14:48:37;2.97;;;1.95;;
42614;SDS011;28754;47.700;7.924;2022-08-14T14:51:29;8.05;;;2.17;;
42614;SDS011;28754;47.700;7.924;2022-08-14T14:54:17;7.32;;;2.10;;
42614;SDS011;28754;47.700;7.924;2022-08-14T14:57:08;6.10;;;2.75;;
42614;SDS011;28754;47.700;7.924;2022-08-14T14:59:58;3.22;;;1.88;;
42614;SDS011;28754;47.700;7.924;2022-08-14T15:02:47;6.43;;;2.67;;
42614;SDS011;28754;47.700;7.924;2022-08-14T15:05:37;4.20;;;1.95;;
42614;SDS011;28754;47.700;7.924;2022-08-14T15:08:24;6.25;;;2.03;;
42614;SDS011;28754;47.700;7.924;2022-08-14T15:11:11;4.50;;;1.75;;
42614;SDS011;28754;47.700;7.924;2022-08-14T15:13:58;6.20;;;1.92;;
42614;SDS011;28754;47.700;7.924;2022-08-14T15:16:46;6.07;;;2.30;;
42614;SDS011;28754;47.700;7.924;2022-08-14T15:19:32;3.22;;;1.98;;
42614;SDS011;28754;47.700;7.924;2022-08-14T15:22:20;7.60;;;2.42;;
42614;SDS011;28754;47.700;7.924;2022-08-14T15:25:08;7.13;;;2.40;;
42614;SDS011;28754;47.700;7.924;2022-08-14T15:27:59;8.85;;;2.92;;
42614;SDS011;28754;47.700;7.924;2022-08-14T15:30:46;7.05;;;2.55;;
42614;SDS011;28754;47.700;7.924;2022-08-14T15:33:34;4.60;;;2.42;;
42614;SDS011;28754;47.700;7.924;2022-08-14T15:36:40;5.22;;;2.92;;
42614;SDS011;28754;47.700;7.924;2022-08-14T15:39:31;7.38;;;3.30;;
42614;SDS011;28754;47.700;7.924;2022-08-14T15:42:21;5.65;;;3.17;;
42614;SDS011;28754;47.700;7.924;2022-08-14T15:45:08;5.82;;;3.17;;
42614;SDS011;28754;47.700;7.924;2022-08-14T15:47:57;3.97;;;2.28;;
42614;SDS011;28754;47.700;7.924;2022-08-14T15:50:45;5.90;;;2.42;;
42614;SDS011;28754;47.700;7.924;2022-08-14T15:53:31;5.00;;;3.17;;
42614;SDS011;28754;47.700;7.924;2022-08-14T15:56:18;7.68;;;2.70;;
42614;SDS011;28754;47.700;7.924;2022-08-14T15:59:08;6.97;;;3.25;;
42614;SDS011;28754;47.700;7.924;2022-08-14T16:01:54;5.70;;;2.83;;
42614;SDS011;28754;47.700;7.924;2022-08-14T16:04:42;5.40;;;2.70;;
42614;SDS011;28754;47.700;7.924;2022-08-14T16:07:30;5.38;;;3.00;;
42614;SDS011;28754;47.700;7.924;2022-08-14T16:10:17;8.40;;;3.40;;
42614;SDS011;28754;47.700;7.924;2022-08-14T16:13:04;6.28;;;3.03;;
42614;SDS011;28754;47.700;7.924;2022-08-14T16:15:51;8.23;;;2.88;;
42614;SDS011;28754;47.700;7.924;2022-08-14T16:18:39;4.43;;;2.55;;
42614;SDS011;28754;47.700;7.924;2022-08-14T16:21:26;7.25;;;2.67;;
42614;SDS011;28754;47.700;7.924;2022-08-14T16:24:16;5.55;;;2.50;;
42614;SDS011;28754;47.700;7.924;2022-08-14T16:27:03;8.48;;;3.05;;
42614;SDS011;28754;47.700;7.924;2022-08-14T16:29:53;6.07;;;3.08;;
42614;SDS011;28754;47.700;7.924;2022-08-14T16:32:41;4.90;;;3.13;;
42614;SDS011;28754;47.700;7.924;2022-08-14T16:35:29;26.58;;;4.68;;
42614;SDS011;28754;47.700;7.924;2022-08-14T16:38:21;6.85;;;2.70;;
42614;SDS011;28754;47.700;7.924;2022-08-14T16:41:12;5.82;;;2.70;;
42614;SDS011;28754;47.700;7.924;2022-08-14T16:44:11;5.93;;;3.05;;
42614;SDS011;28754;47.700;7.924;2022-08-14T16:47:02;7.05;;;2.80;;
42614;SDS011;28754;47.700;7.924;2022-08-14T16:50:05;5.28;;;2.13;;
42614;SDS011;28754;47.700;7.924;2022-08-14T16:52:56;5.20;;;2.90;;
42614;SDS011;28754;47.700;7.924;2022-08-14T16:55:42;6.47;;;2.88;;
42614;SDS011;28754;47.700;7.924;2022-08-14T16:58:30;5.70;;;3.22;;
42614;SDS011;28754;47.700;7.924;2022-08-14T17:01:21;7.13;;;2.70;;
42614;SDS011;28754;47.700;7.924;2022-08-14T17:04:16;5.07;;;2.78;;
42614;SDS011;28754;47.700;7.924;2022-08-14T17:07:05;4.38;;;2.65;;
42614;SDS011;28754;47.700;7.924;2022-08-14T17:09:57;6.65;;;3.20;;
42614;SDS011;28754;47.700;7.924;2022-08-14T17:12:55;3.97;;;2.72;;
42614;SDS011;28754;47.700;7.924;2022-08-14T17:16:12;4.38;;;2.47;;
42614;SDS011;28754;47.700;7.924;2022-08-14T17:19:03;5.30;;;2.80;;